sensor_id;sensor_type;location;lat;lon;timestamp;P1;durP1;ratioP1;P2;durP2;ratioP2
286;SDS011;127;48.770;9.212;2022-07-05T00:00:03;7.10;;;4.10;;
286;SDS011;127;48.770;9.212;2022-07-05T00:02:33;6.93;;;3.00;;
286;SDS011;127;48.770;9.212;2022-07-05T00:05:01;5.77;;;3.50;;
286;SDS011;127;48.770;9.212;2022-07-05T00:07:30;8.57;;;4.17;;
286;SDS011;127;48.770;9.212;2022-07-05T00:09:59;6.83;;;3.50;;
286;SDS011;127;48.770;9.212;2022-07-05T00:12:31;8.93;;;3.10;;
286;SDS011;127;48.770;9.212;2022-07-05T00:15:00;7.10;;;3.37;;
286;SDS011;127;48.770;9.212;2022-07-05T00:17:29;7.10;;;3.13;;
286;SDS011;127;48.770;9.212;2022-07-05T00:19:58;4.97;;;3.10;;
286;SDS011;127;48.770;9.212;2022-07-05T00:22:26;11.00;;;3.43;;
286;SDS011;127;48.770;9.212;2022-07-05T00:24:55;5.90;;;3.20;;
286;SDS011;127;48.770;9.212;2022-07-05T00:27:24;5.60;;;3.90;;
286;SDS011;127;48.770;9.212;2022-07-05T00:29:55;8.10;;;4.13;;
286;SDS011;127;48.770;9.212;2022-07-05T00:32:24;7.83;;;4.30;;
286;SDS011;127;48.770;9.212;2022-07-05T00:34:53;9.80;;;3.90;;
286;SDS011;127;48.770;9.212;2022-07-05T00:37:21;7.07;;;3.73;;
286;SDS011;127;48.770;9.212;2022-07-05T00:39:50;10.70;;;3.93;;
286;SDS011;127;48.770;9.212;2022-07-05T00:42:19;9.00;;;3.73;;
286;SDS011;127;48.770;9.212;2022-07-05T00:44:48;4.33;;;3.10;;
286;SDS011;127;48.770;9.212;2022-07-05T00:47:19;4.60;;;3.60;;
286;SDS011;127;48.770;9.212;2022-07-05T00:49:48;5.27;;;4.03;;
286;SDS011;127;48.770;9.212;2022-07-05T00:52:17;4.50;;;2.90;;
286;SDS011;127;48.770;9.212;2022-07-05T00:54:46;5.87;;;3.20;;
286;SDS011;127;48.770;9.212;2022-07-05T00:57:15;5.07;;;3.30;;
286;SDS011;127;48.770;9.212;2022-07-05T00:59:44;7.20;;;3.37;;
286;SDS011;127;48.770;9.212;2022-07-05T01:02:13;7.83;;;3.33;;
286;SDS011;127;48.770;9.212;2022-07-05T01:04:44;6.23;;;3.20;;
286;SDS011;127;48.770;9.212;2022-07-05T01:07:13;4.70;;;2.87;;
286;SDS011;127;48.770;9.212;2022-07-05T01:09:41;5.33;;;3.23;;
286;SDS011;127;48.770;9.212;2022-07-05T01:12:10;3.43;;;3.20;;
286;SDS011;127;48.770;9.212;2022-07-05T01:14:40;7.30;;;3.37;;
286;SDS011;127;48.770;9.212;2022-07-05T01:17:10;4.13;;;3.10;;
286;SDS011;127;48.770;9.212;2022-07-05T01:19:39;3.50;;;3.30;;
286;SDS011;127;48.770;9.212;2022-07-05T01:22:11;4.77;;;3.30;;
286;SDS011;127;48.770;9.212;2022-07-05T01:24:48;4.07;;;3.03;;
286;SDS011;127;48.770;9.212;2022-07-05T01:27:18;4.33;;;3.60;;
286;SDS011;127;48.770;9.212;2022-07-05T01:29:47;2.93;;;2.77;;
286;SDS011;127;48.770;9.212;2022-07-05T01:32:15;11.50;;;3.73;;
286;SDS011;127;48.770;9.212;2022-07-05T01:34:44;5.20;;;3.97;;
286;SDS011;127;48.770;9.212;2022-07-05T01:37:14;4.97;;;3.57;;
286;SDS011;127;48.770;9.212;2022-07-05T01:39:42;8.83;;;4.17;;
286;SDS011;127;48.770;9.212;2022-07-05T01:42:14;4.90;;;3.30;;
286;SDS011;127;48.770;9.212;2022-07-05T01:44:43;5.07;;;3.40;;
286;SDS011;127;48.770;9.212;2022-07-05T01:47:12;4.47;;;3.77;;
286;SDS011;127;48.770;9.212;2022-07-05T01:49:43;9.20;;;4.30;;
286;SDS011;127;48.770;9.212;2022-07-05T01:52:16;7.00;;;3.93;;
286;SDS011;127;48.770;9.212;2022-07-05T01:54:47;10.20;;;4.30;;
286;SDS011;127;48.770;9.212;2022-07-05T01:57:18;5.90;;;3.93;;
286;SDS011;127;48.770;9.212;2022-07-05T01:59:47;6.53;;;4.13;;
286;SDS011;127;48.770;9.212;2022-07-05T02:02:16;5.67;;;4.30;;
286;SDS011;127;48.770;9.212;2022-07-05T02:04:45;6.97;;;4.33;;
286;SDS011;127;48.770;9.212;2022-07-05T02:07:13;9.23;;;4.20;;
286;SDS011;127;48.770;9.212;2022-07-05T02:09:42;6.90;;;5.10;;
286;SDS011;127;48.770;9.212;2022-07-05T02:12:11;8.60;;;5.53;;
286;SDS011;127;48.770;9.212;2022-07-05T02:14:42;8.03;;;5.00;;
286;SDS011;127;48.770;9.212;2022-07-05T02:17:11;9.30;;;6.00;;
286;SDS011;127;48.770;9.212;2022-07-05T02:19:39;5.10;;;4.37;;
286;SDS011;127;48.770;9.212;2022-07-05T02:22:08;10.27;;;5.57;;
286;SDS011;127;48.770;9.212;2022-07-05T02:24:37;9.37;;;5.80;;
286;SDS011;127;48.770;9.212;2022-07-05T02:27:06;10.37;;;5.60;;
286;SDS011;127;48.770;9.212;2022-07-05T02:29:35;12.70;;;6.27;;
286;SDS011;127;48.770;9.212;2022-07-05T02:32:06;13.17;;;6.57;;
286;SDS011;127;48.770;9.212;2022-07-05T02:34:35;9.23;;;5.70;;
286;SDS011;127;48.770;9.212;2022-07-05T02:37:04;7.90;;;5.50;;
286;SDS011;127;48.770;9.212;2022-07-05T02:39:32;8.33;;;5.67;;
286;SDS011;127;48.770;9.212;2022-07-05T02:42:01;7.80;;;5.50;;
286;SDS011;127;48.770;9.212;2022-07-05T02:44:30;7.03;;;5.37;;
286;SDS011;127;48.770;9.212;2022-07-05T02:47:00;15.87;;;5.20;;
286;SDS011;127;48.770;9.212;2022-07-05T02:49:31;8.37;;;4.83;;
286;SDS011;127;48.770;9.212;2022-07-05T02:52:00;9.10;;;5.53;;
286;SDS011;127;48.770;9.212;2022-07-05T02:54:28;8.00;;;5.07;;
286;SDS011;127;48.770;9.212;2022-07-05T02:56:58;10.90;;;6.00;;
286;SDS011;127;48.770;9.212;2022-07-05T02:59:27;7.90;;;5.93;;
286;SDS011;127;48.770;9.212;2022-07-05T03:01:55;7.53;;;6.00;;
286;SDS011;127;48.770;9.212;2022-07-05T03:04:24;5.90;;;4.73;;
286;SDS011;127;48.770;9.212;2022-07-05T03:06:55;10.80;;;5.40;;
286;SDS011;127;48.770;9.212;2022-07-05T03:09:25;11.77;;;4.80;;
286;SDS011;127;48.770;9.212;2022-07-05T03:11:53;7.07;;;4.40;;
286;SDS011;127;48.770;9.212;2022-07-05T03:14:22;5.43;;;4.40;;
286;SDS011;127;48.770;9.212;2022-07-05T03:16:50;4.40;;;3.93;;
286;SDS011;127;48.770;9.212;2022-07-05T03:19:19;8.33;;;3.80;;
286;SDS011;127;48.770;9.212;2022-07-05T03:21:48;5.43;;;4.10;;
286;SDS011;127;48.770;9.212;2022-07-05T03:24:19;4.67;;;3.63;;
286;SDS011;127;48.770;9.212;2022-07-05T03:26:48;6.03;;;4.10;;
286;SDS011;127;48.770;9.212;2022-07-05T03:29:16;4.00;;;3.67;;
286;SDS011;127;48.770;9.212;2022-07-05T03:31:45;7.63;;;4.20;;
286;SDS011;127;48.770;9.212;2022-07-05T03:34:14;4.53;;;3.70;;
286;SDS011;127;48.770;9.212;2022-07-05T03:36:42;5.23;;;3.90;;
286;SDS011;127;48.770;9.212;2022-07-05T03:39:11;6.30;;;3.80;;
286;SDS011;127;48.770;9.212;2022-07-05T03:41:42;6.97;;;4.40;;
286;SDS011;127;48.770;9.212;2022-07-05T03:44:11;6.83;;;4.33;;
286;SDS011;127;48.770;9.212;2022-07-05T03:46:39;5.97;;;4.23;;
286;SDS011;127;48.770;9.212;2022-07-05T03:49:08;5.10;;;3.80;;
286;SDS011;127;48.770;9.212;2022-07-05T03:51:37;11.30;;;5.17;;
286;SDS011;127;48.770;9.212;2022-07-05T03:54:05;7.03;;;4.70;;
286;SDS011;127;48.770;9.212;2022-07-05T03:56:34;7.03;;;4.90;;
286;SDS011;127;48.770;9.212;2022-07-05T03:59:05;6.60;;;5.40;;
286;SDS011;127;48.770;9.212;2022-07-05T04:01:34;8.77;;;5.93;;
286;SDS011;127;48.770;9.212;2022-07-05T04:04:03;13.40;;;5.43;;
286;SDS011;127;48.770;9.212;2022-07-05T04:06:32;7.83;;;5.30;;
286;SDS011;127;48.770;9.212;2022-07-05T04:09:00;15.03;;;5.70;;
286;SDS011;127;48.770;9.212;2022-07-05T04:11:29;8.60;;;5.77;;
286;SDS011;127;48.770;9.212;2022-07-05T04:13:58;9.40;;;5.83;;
286;SDS011;127;48.770;9.212;2022-07-05T04:16:29;10.83;;;6.10;;
286;SDS011;127;48.770;9.212;2022-07-05T04:18:57;9.53;;;5.33;;
286;SDS011;127;48.770;9.212;2022-07-05T04:21:26;9.00;;;5.50;;
286;SDS011;127;48.770;9.212;2022-07-05T04:23:57;9.23;;;5.60;;
286;SDS011;127;48.770;9.212;2022-07-05T04:26:26;8.70;;;5.60;;
286;SDS011;127;48.770;9.212;2022-07-05T04:28:55;5.37;;;4.87;;
286;SDS011;127;48.770;9.212;2022-07-05T04:31:23;8.10;;;5.97;;
286;SDS011;127;48.770;9.212;2022-07-05T04:33:54;9.33;;;6.17;;
286;SDS011;127;48.770;9.212;2022-07-05T04:36:23;8.90;;;5.73;;
286;SDS011;127;48.770;9.212;2022-07-05T04:38:52;9.40;;;6.63;;
286;SDS011;127;48.770;9.212;2022-07-05T04:41:21;9.90;;;6.07;;
286;SDS011;127;48.770;9.212;2022-07-05T04:43:49;12.73;;;5.87;;
286;SDS011;127;48.770;9.212;2022-07-05T04:46:18;6.77;;;5.50;;
286;SDS011;127;48.770;9.212;2022-07-05T04:48:47;9.37;;;5.33;;
286;SDS011;127;48.770;9.212;2022-07-05T04:51:18;9.70;;;5.50;;
286;SDS011;127;48.770;9.212;2022-07-05T04:53:47;10.23;;;5.83;;
286;SDS011;127;48.770;9.212;2022-07-05T04:56:15;4.53;;;4.03;;
286;SDS011;127;48.770;9.212;2022-07-05T04:58:44;6.23;;;4.70;;
286;SDS011;127;48.770;9.212;2022-07-05T05:01:13;7.20;;;4.63;;
286;SDS011;127;48.770;9.212;2022-07-05T05:03:41;7.07;;;4.40;;
286;SDS011;127;48.770;9.212;2022-07-05T05:06:10;8.70;;;5.23;;
286;SDS011;127;48.770;9.212;2022-07-05T05:08:42;4.43;;;4.13;;
286;SDS011;127;48.770;9.212;2022-07-05T05:11:10;7.90;;;3.80;;
286;SDS011;127;48.770;9.212;2022-07-05T05:13:39;5.73;;;3.87;;
286;SDS011;127;48.770;9.212;2022-07-05T05:16:10;4.27;;;3.30;;
286;SDS011;127;48.770;9.212;2022-07-05T05:18:39;5.87;;;3.50;;
286;SDS011;127;48.770;9.212;2022-07-05T05:21:07;4.93;;;3.20;;
286;SDS011;127;48.770;9.212;2022-07-05T05:23:36;5.17;;;3.63;;
286;SDS011;127;48.770;9.212;2022-07-05T05:26:08;5.73;;;3.03;;
286;SDS011;127;48.770;9.212;2022-07-05T05:28:36;3.07;;;2.60;;
286;SDS011;127;48.770;9.212;2022-07-05T05:31:05;3.67;;;2.50;;
286;SDS011;127;48.770;9.212;2022-07-05T05:33:35;3.00;;;2.80;;
286;SDS011;127;48.770;9.212;2022-07-05T05:36:05;2.60;;;2.33;;
286;SDS011;127;48.770;9.212;2022-07-05T05:38:34;5.87;;;2.90;;
286;SDS011;127;48.770;9.212;2022-07-05T05:41:03;6.10;;;2.97;;
286;SDS011;127;48.770;9.212;2022-07-05T05:43:35;4.77;;;3.20;;
286;SDS011;127;48.770;9.212;2022-07-05T05:46:03;5.00;;;3.10;;
286;SDS011;127;48.770;9.212;2022-07-05T05:48:32;5.07;;;2.80;;
286;SDS011;127;48.770;9.212;2022-07-05T05:51:00;5.40;;;2.63;;
286;SDS011;127;48.770;9.212;2022-07-05T05:53:30;6.73;;;2.90;;
286;SDS011;127;48.770;9.212;2022-07-05T05:55:58;6.87;;;2.77;;
286;SDS011;127;48.770;9.212;2022-07-05T05:58:27;9.50;;;3.20;;
286;SDS011;127;48.770;9.212;2022-07-05T06:01:00;9.03;;;3.40;;
286;SDS011;127;48.770;9.212;2022-07-05T06:03:29;2.50;;;2.17;;
286;SDS011;127;48.770;9.212;2022-07-05T06:05:57;5.80;;;3.17;;
286;SDS011;127;48.770;9.212;2022-07-05T06:08:26;4.60;;;2.40;;
286;SDS011;127;48.770;9.212;2022-07-05T06:10:55;2.70;;;2.20;;
286;SDS011;127;48.770;9.212;2022-07-05T06:13:25;4.97;;;2.20;;
286;SDS011;127;48.770;9.212;2022-07-05T06:15:53;4.53;;;2.20;;
286;SDS011;127;48.770;9.212;2022-07-05T06:18:25;5.37;;;2.47;;
286;SDS011;127;48.770;9.212;2022-07-05T06:20:53;2.87;;;2.13;;
286;SDS011;127;48.770;9.212;2022-07-05T06:23:23;3.57;;;1.80;;
286;SDS011;127;48.770;9.212;2022-07-05T06:25:52;2.87;;;1.70;;
286;SDS011;127;48.770;9.212;2022-07-05T06:28:23;3.30;;;2.30;;
286;SDS011;127;48.770;9.212;2022-07-05T06:30:52;3.33;;;1.60;;
286;SDS011;127;48.770;9.212;2022-07-05T06:33:21;4.30;;;2.00;;
286;SDS011;127;48.770;9.212;2022-07-05T06:35:52;4.10;;;2.17;;
286;SDS011;127;48.770;9.212;2022-07-05T06:38:21;4.30;;;2.20;;
286;SDS011;127;48.770;9.212;2022-07-05T06:40:50;3.73;;;2.03;;
286;SDS011;127;48.770;9.212;2022-07-05T06:43:18;1.97;;;1.80;;
286;SDS011;127;48.770;9.212;2022-07-05T06:45:47;2.57;;;1.80;;
286;SDS011;127;48.770;9.212;2022-07-05T06:48:16;2.03;;;1.87;;
286;SDS011;127;48.770;9.212;2022-07-05T06:50:45;7.50;;;2.40;;
286;SDS011;127;48.770;9.212;2022-07-05T06:53:16;7.50;;;2.10;;
286;SDS011;127;48.770;9.212;2022-07-05T06:55:45;7.57;;;2.53;;
286;SDS011;127;48.770;9.212;2022-07-05T06:58:14;3.90;;;1.73;;
286;SDS011;127;48.770;9.212;2022-07-05T07:00:43;3.47;;;2.20;;
286;SDS011;127;48.770;9.212;2022-07-05T07:03:13;6.83;;;2.50;;
286;SDS011;127;48.770;9.212;2022-07-05T07:05:41;4.27;;;2.20;;
286;SDS011;127;48.770;9.212;2022-07-05T07:08:10;12.40;;;2.13;;
286;SDS011;127;48.770;9.212;2022-07-05T07:10:54;2.53;;;1.77;;
286;SDS011;127;48.770;9.212;2022-07-05T07:13:22;3.30;;;2.00;;
286;SDS011;127;48.770;9.212;2022-07-05T07:15:51;2.00;;;1.90;;
286;SDS011;127;48.770;9.212;2022-07-05T07:18:20;3.90;;;2.27;;
286;SDS011;127;48.770;9.212;2022-07-05T07:20:48;5.30;;;2.33;;
286;SDS011;127;48.770;9.212;2022-07-05T07:23:17;8.17;;;2.50;;
286;SDS011;127;48.770;9.212;2022-07-05T07:25:46;3.53;;;2.10;;
286;SDS011;127;48.770;9.212;2022-07-05T07:28:17;2.17;;;1.50;;
286;SDS011;127;48.770;9.212;2022-07-05T07:30:46;6.30;;;2.30;;
286;SDS011;127;48.770;9.212;2022-07-05T07:33:14;3.40;;;1.60;;
286;SDS011;127;48.770;9.212;2022-07-05T07:35:43;4.90;;;2.07;;
286;SDS011;127;48.770;9.212;2022-07-05T07:38:12;5.37;;;2.00;;
286;SDS011;127;48.770;9.212;2022-07-05T07:40:40;6.20;;;2.10;;
286;SDS011;127;48.770;9.212;2022-07-05T07:43:09;5.27;;;2.23;;
286;SDS011;127;48.770;9.212;2022-07-05T07:45:40;2.47;;;2.00;;
286;SDS011;127;48.770;9.212;2022-07-05T07:48:09;6.57;;;2.10;;
286;SDS011;127;48.770;9.212;2022-07-05T07:50:38;4.80;;;2.50;;
286;SDS011;127;48.770;9.212;2022-07-05T07:53:06;5.03;;;1.90;;
286;SDS011;127;48.770;9.212;2022-07-05T07:55:35;4.43;;;2.60;;
286;SDS011;127;48.770;9.212;2022-07-05T07:58:03;3.40;;;2.20;;
286;SDS011;127;48.770;9.212;2022-07-05T08:00:33;2.67;;;2.13;;
286;SDS011;127;48.770;9.212;2022-07-05T08:03:04;2.90;;;2.17;;
286;SDS011;127;48.770;9.212;2022-07-05T08:05:33;3.73;;;1.83;;
286;SDS011;127;48.770;9.212;2022-07-05T08:08:02;5.30;;;2.07;;
286;SDS011;127;48.770;9.212;2022-07-05T08:10:30;2.40;;;1.97;;
286;SDS011;127;48.770;9.212;2022-07-05T08:12:59;3.40;;;2.37;;
286;SDS011;127;48.770;9.212;2022-07-05T08:15:28;5.40;;;2.50;;
286;SDS011;127;48.770;9.212;2022-07-05T08:17:57;7.23;;;1.90;;
286;SDS011;127;48.770;9.212;2022-07-05T08:20:40;3.63;;;2.20;;
286;SDS011;127;48.770;9.212;2022-07-05T08:23:21;4.40;;;2.10;;
286;SDS011;127;48.770;9.212;2022-07-05T08:25:50;4.37;;;2.40;;
286;SDS011;127;48.770;9.212;2022-07-05T08:28:19;2.70;;;1.80;;
286;SDS011;127;48.770;9.212;2022-07-05T08:30:47;5.63;;;2.73;;
286;SDS011;127;48.770;9.212;2022-07-05T08:33:16;4.43;;;2.33;;
286;SDS011;127;48.770;9.212;2022-07-05T08:35:47;4.73;;;1.63;;
286;SDS011;127;48.770;9.212;2022-07-05T08:38:16;5.90;;;2.27;;
286;SDS011;127;48.770;9.212;2022-07-05T08:40:46;4.67;;;2.00;;
286;SDS011;127;48.770;9.212;2022-07-05T08:43:17;6.23;;;1.90;;
286;SDS011;127;48.770;9.212;2022-07-05T08:45:48;2.33;;;1.83;;
286;SDS011;127;48.770;9.212;2022-07-05T08:48:17;3.07;;;1.80;;
286;SDS011;127;48.770;9.212;2022-07-05T08:50:51;4.47;;;2.07;;
286;SDS011;127;48.770;9.212;2022-07-05T08:53:22;4.73;;;2.30;;
286;SDS011;127;48.770;9.212;2022-07-05T08:55:53;4.27;;;2.23;;
286;SDS011;127;48.770;9.212;2022-07-05T08:58:22;5.73;;;1.77;;
286;SDS011;127;48.770;9.212;2022-07-05T09:00:50;3.63;;;1.80;;
286;SDS011;127;48.770;9.212;2022-07-05T09:03:19;6.47;;;1.70;;
286;SDS011;127;48.770;9.212;2022-07-05T09:05:55;1.53;;;1.30;;
286;SDS011;127;48.770;9.212;2022-07-05T09:08:25;3.77;;;2.37;;
286;SDS011;127;48.770;9.212;2022-07-05T09:10:59;17.07;;;2.83;;
286;SDS011;127;48.770;9.212;2022-07-05T09:13:32;3.63;;;1.50;;
286;SDS011;127;48.770;9.212;2022-07-05T09:16:02;9.93;;;1.70;;
286;SDS011;127;48.770;9.212;2022-07-05T09:18:38;5.43;;;1.70;;
286;SDS011;127;48.770;9.212;2022-07-05T09:21:13;6.10;;;2.20;;
286;SDS011;127;48.770;9.212;2022-07-05T09:23:43;5.07;;;1.53;;
286;SDS011;127;48.770;9.212;2022-07-05T09:26:12;7.33;;;2.17;;
286;SDS011;127;48.770;9.212;2022-07-05T09:28:53;2.63;;;1.80;;
286;SDS011;127;48.770;9.212;2022-07-05T09:31:26;3.17;;;1.90;;
286;SDS011;127;48.770;9.212;2022-07-05T09:34:05;6.90;;;1.67;;
286;SDS011;127;48.770;9.212;2022-07-05T09:36:50;3.70;;;1.50;;
286;SDS011;127;48.770;9.212;2022-07-05T09:39:34;6.23;;;1.70;;
286;SDS011;127;48.770;9.212;2022-07-05T09:42:14;8.73;;;1.70;;
286;SDS011;127;48.770;9.212;2022-07-05T09:44:49;4.23;;;2.00;;
286;SDS011;127;48.770;9.212;2022-07-05T09:47:19;5.53;;;1.60;;
286;SDS011;127;48.770;9.212;2022-07-05T09:49:50;5.77;;;1.93;;
286;SDS011;127;48.770;9.212;2022-07-05T09:52:28;1.97;;;1.73;;
286;SDS011;127;48.770;9.212;2022-07-05T09:55:02;8.70;;;1.90;;
286;SDS011;127;48.770;9.212;2022-07-05T09:57:33;3.30;;;1.87;;
286;SDS011;127;48.770;9.212;2022-07-05T10:00:05;4.60;;;2.17;;
286;SDS011;127;48.770;9.212;2022-07-05T10:02:38;6.50;;;1.67;;
286;SDS011;127;48.770;9.212;2022-07-05T10:05:08;2.93;;;1.83;;
286;SDS011;127;48.770;9.212;2022-07-05T10:07:43;4.37;;;2.00;;
286;SDS011;127;48.770;9.212;2022-07-05T10:10:14;3.43;;;1.60;;
286;SDS011;127;48.770;9.212;2022-07-05T10:12:44;3.43;;;1.83;;
286;SDS011;127;48.770;9.212;2022-07-05T10:15:15;4.20;;;1.57;;
286;SDS011;127;48.770;9.212;2022-07-05T10:17:46;2.10;;;1.60;;
286;SDS011;127;48.770;9.212;2022-07-05T10:20:21;8.23;;;2.70;;
286;SDS011;127;48.770;9.212;2022-07-05T10:22:58;2.10;;;1.30;;
286;SDS011;127;48.770;9.212;2022-07-05T10:25:31;3.37;;;1.47;;
286;SDS011;127;48.770;9.212;2022-07-05T10:28:00;5.23;;;1.50;;
286;SDS011;127;48.770;9.212;2022-07-05T10:30:29;4.00;;;1.40;;
286;SDS011;127;48.770;9.212;2022-07-05T10:32:58;2.63;;;1.70;;
286;SDS011;127;48.770;9.212;2022-07-05T10:35:29;6.03;;;1.53;;
286;SDS011;127;48.770;9.212;2022-07-05T10:38:00;3.10;;;1.50;;
286;SDS011;127;48.770;9.212;2022-07-05T10:40:30;4.00;;;1.27;;
286;SDS011;127;48.770;9.212;2022-07-05T10:43:00;4.40;;;1.80;;
286;SDS011;127;48.770;9.212;2022-07-05T10:45:33;2.23;;;1.30;;
286;SDS011;127;48.770;9.212;2022-07-05T10:48:12;3.60;;;1.50;;
286;SDS011;127;48.770;9.212;2022-07-05T10:50:45;4.93;;;1.30;;
286;SDS011;127;48.770;9.212;2022-07-05T10:53:19;5.07;;;1.37;;
286;SDS011;127;48.770;9.212;2022-07-05T10:55:49;2.47;;;1.37;;
286;SDS011;127;48.770;9.212;2022-07-05T10:58:23;2.60;;;1.27;;
286;SDS011;127;48.770;9.212;2022-07-05T11:03:54;5.77;;;1.40;;
286;SDS011;127;48.770;9.212;2022-07-05T11:06:39;1.77;;;1.30;;
286;SDS011;127;48.770;9.212;2022-07-05T11:09:20;2.13;;;1.60;;
286;SDS011;127;48.770;9.212;2022-07-05T11:12:02;3.90;;;1.40;;
286;SDS011;127;48.770;9.212;2022-07-05T11:14:38;2.23;;;1.83;;
286;SDS011;127;48.770;9.212;2022-07-05T11:17:22;2.17;;;1.57;;
286;SDS011;127;48.770;9.212;2022-07-05T11:20:02;1.90;;;1.50;;
286;SDS011;127;48.770;9.212;2022-07-05T11:22:34;3.40;;;1.70;;
286;SDS011;127;48.770;9.212;2022-07-05T11:25:07;2.80;;;1.50;;
286;SDS011;127;48.770;9.212;2022-07-05T11:30:31;3.20;;;1.20;;
286;SDS011;127;48.770;9.212;2022-07-05T11:33:25;4.50;;;1.10;;
286;SDS011;127;48.770;9.212;2022-07-05T11:35:58;6.27;;;1.67;;
286;SDS011;127;48.770;9.212;2022-07-05T11:38:29;3.50;;;1.43;;
286;SDS011;127;48.770;9.212;2022-07-05T11:41:15;3.70;;;1.73;;
286;SDS011;127;48.770;9.212;2022-07-05T11:43:44;7.00;;;1.70;;
286;SDS011;127;48.770;9.212;2022-07-05T11:46:24;5.60;;;1.87;;
286;SDS011;127;48.770;9.212;2022-07-05T11:48:52;3.47;;;1.40;;
286;SDS011;127;48.770;9.212;2022-07-05T11:51:22;2.30;;;1.50;;
286;SDS011;127;48.770;9.212;2022-07-05T11:53:51;1.90;;;1.30;;
286;SDS011;127;48.770;9.212;2022-07-05T11:56:22;2.87;;;2.00;;
286;SDS011;127;48.770;9.212;2022-07-05T11:58:50;1.73;;;1.27;;
286;SDS011;127;48.770;9.212;2022-07-05T12:01:19;3.83;;;1.50;;
286;SDS011;127;48.770;9.212;2022-07-05T12:03:54;5.67;;;2.27;;
286;SDS011;127;48.770;9.212;2022-07-05T12:06:23;4.60;;;1.77;;
286;SDS011;127;48.770;9.212;2022-07-05T12:09:01;1.60;;;1.50;;
286;SDS011;127;48.770;9.212;2022-07-05T12:11:34;1.83;;;1.50;;
286;SDS011;127;48.770;9.212;2022-07-05T12:14:21;3.90;;;1.33;;
286;SDS011;127;48.770;9.212;2022-07-05T12:19:40;3.67;;;1.97;;
286;SDS011;127;48.770;9.212;2022-07-05T12:22:09;3.03;;;1.77;;
286;SDS011;127;48.770;9.212;2022-07-05T12:24:38;3.57;;;1.90;;
286;SDS011;127;48.770;9.212;2022-07-05T12:27:11;2.47;;;1.60;;
286;SDS011;127;48.770;9.212;2022-07-05T12:29:40;8.23;;;1.47;;
286;SDS011;127;48.770;9.212;2022-07-05T12:32:09;4.00;;;1.90;;
286;SDS011;127;48.770;9.212;2022-07-05T12:34:39;2.33;;;1.70;;
286;SDS011;127;48.770;9.212;2022-07-05T12:37:08;3.63;;;1.50;;
286;SDS011;127;48.770;9.212;2022-07-05T12:39:37;3.20;;;1.20;;
286;SDS011;127;48.770;9.212;2022-07-05T12:42:06;2.90;;;1.40;;
286;SDS011;127;48.770;9.212;2022-07-05T12:44:37;7.00;;;1.37;;
286;SDS011;127;48.770;9.212;2022-07-05T12:47:06;4.20;;;1.50;;
286;SDS011;127;48.770;9.212;2022-07-05T12:52:22;2.77;;;1.50;;
286;SDS011;127;48.770;9.212;2022-07-05T12:57:49;1.47;;;1.37;;
286;SDS011;127;48.770;9.212;2022-07-05T13:00:32;5.60;;;2.20;;
286;SDS011;127;48.770;9.212;2022-07-05T13:03:06;2.10;;;1.87;;
286;SDS011;127;48.770;9.212;2022-07-05T13:05:34;3.13;;;1.57;;
286;SDS011;127;48.770;9.212;2022-07-05T13:08:04;5.93;;;1.90;;
286;SDS011;127;48.770;9.212;2022-07-05T13:10:32;6.30;;;1.70;;
286;SDS011;127;48.770;9.212;2022-07-05T13:13:01;3.27;;;1.40;;
286;SDS011;127;48.770;9.212;2022-07-05T13:15:41;4.63;;;1.93;;
286;SDS011;127;48.770;9.212;2022-07-05T13:18:10;4.27;;;1.80;;
286;SDS011;127;48.770;9.212;2022-07-05T13:20:39;8.90;;;1.93;;
286;SDS011;127;48.770;9.212;2022-07-05T13:23:08;4.50;;;1.60;;
286;SDS011;127;48.770;9.212;2022-07-05T13:25:36;3.27;;;1.87;;
286;SDS011;127;48.770;9.212;2022-07-05T13:28:05;5.83;;;1.90;;
286;SDS011;127;48.770;9.212;2022-07-05T13:30:34;4.03;;;1.90;;
286;SDS011;127;48.770;9.212;2022-07-05T13:33:05;6.27;;;2.03;;
286;SDS011;127;48.770;9.212;2022-07-05T13:35:34;8.27;;;2.70;;
286;SDS011;127;48.770;9.212;2022-07-05T13:38:02;5.13;;;2.27;;
286;SDS011;127;48.770;9.212;2022-07-05T13:40:31;3.30;;;1.83;;
286;SDS011;127;48.770;9.212;2022-07-05T13:43:00;2.47;;;1.70;;
286;SDS011;127;48.770;9.212;2022-07-05T13:45:29;2.40;;;1.90;;
286;SDS011;127;48.770;9.212;2022-07-05T13:47:58;6.00;;;2.13;;
286;SDS011;127;48.770;9.212;2022-07-05T13:50:30;4.83;;;1.67;;
286;SDS011;127;48.770;9.212;2022-07-05T13:53:02;3.23;;;1.97;;
286;SDS011;127;48.770;9.212;2022-07-05T13:55:31;8.63;;;2.17;;
286;SDS011;127;48.770;9.212;2022-07-05T13:58:00;3.60;;;2.10;;
286;SDS011;127;48.770;9.212;2022-07-05T14:00:28;3.20;;;1.70;;
286;SDS011;127;48.770;9.212;2022-07-05T14:02:57;2.00;;;1.80;;
286;SDS011;127;48.770;9.212;2022-07-05T14:05:26;6.83;;;1.80;;
286;SDS011;127;48.770;9.212;2022-07-05T14:07:57;3.77;;;1.93;;
286;SDS011;127;48.770;9.212;2022-07-05T14:10:26;7.13;;;2.03;;
286;SDS011;127;48.770;9.212;2022-07-05T14:12:55;4.67;;;1.97;;
286;SDS011;127;48.770;9.212;2022-07-05T14:15:23;2.90;;;2.00;;
286;SDS011;127;48.770;9.212;2022-07-05T14:17:52;5.33;;;1.90;;
286;SDS011;127;48.770;9.212;2022-07-05T14:20:21;3.67;;;2.00;;
286;SDS011;127;48.770;9.212;2022-07-05T14:22:50;2.93;;;1.60;;
286;SDS011;127;48.770;9.212;2022-07-05T14:25:21;3.20;;;1.70;;
286;SDS011;127;48.770;9.212;2022-07-05T14:27:50;4.40;;;1.70;;
286;SDS011;127;48.770;9.212;2022-07-05T14:30:18;4.33;;;1.53;;
286;SDS011;127;48.770;9.212;2022-07-05T14:32:48;4.50;;;2.03;;
286;SDS011;127;48.770;9.212;2022-07-05T14:35:17;6.83;;;2.07;;
286;SDS011;127;48.770;9.212;2022-07-05T14:37:46;2.53;;;1.50;;
286;SDS011;127;48.770;9.212;2022-07-05T14:40:15;2.40;;;1.53;;
286;SDS011;127;48.770;9.212;2022-07-05T14:42:46;4.60;;;1.90;;
286;SDS011;127;48.770;9.212;2022-07-05T14:45:15;3.30;;;1.80;;
286;SDS011;127;48.770;9.212;2022-07-05T14:47:44;3.80;;;2.00;;
286;SDS011;127;48.770;9.212;2022-07-05T14:50:12;4.93;;;1.90;;
286;SDS011;127;48.770;9.212;2022-07-05T14:52:41;6.23;;;2.00;;
286;SDS011;127;48.770;9.212;2022-07-05T14:55:10;2.40;;;1.53;;
286;SDS011;127;48.770;9.212;2022-07-05T14:57:39;5.53;;;2.20;;
286;SDS011;127;48.770;9.212;2022-07-05T15:00:11;5.07;;;2.17;;
286;SDS011;127;48.770;9.212;2022-07-05T15:02:42;4.83;;;1.97;;
286;SDS011;127;48.770;9.212;2022-07-05T15:05:11;2.03;;;1.93;;
286;SDS011;127;48.770;9.212;2022-07-05T15:07:40;3.97;;;1.63;;
286;SDS011;127;48.770;9.212;2022-07-05T15:10:09;9.40;;;1.83;;
286;SDS011;127;48.770;9.212;2022-07-05T15:12:37;3.60;;;1.80;;
286;SDS011;127;48.770;9.212;2022-07-05T15:15:07;3.73;;;1.73;;
286;SDS011;127;48.770;9.212;2022-07-05T15:17:39;5.90;;;2.00;;
286;SDS011;127;48.770;9.212;2022-07-05T15:20:09;4.33;;;2.20;;
286;SDS011;127;48.770;9.212;2022-07-05T15:22:40;3.20;;;1.80;;
286;SDS011;127;48.770;9.212;2022-07-05T15:25:08;3.30;;;1.90;;
286;SDS011;127;48.770;9.212;2022-07-05T15:27:37;3.70;;;1.60;;
286;SDS011;127;48.770;9.212;2022-07-05T15:30:06;3.27;;;1.70;;
286;SDS011;127;48.770;9.212;2022-07-05T15:32:35;2.37;;;2.00;;
286;SDS011;127;48.770;9.212;2022-07-05T15:35:07;9.33;;;2.23;;
286;SDS011;127;48.770;9.212;2022-07-05T15:37:36;2.77;;;1.87;;
286;SDS011;127;48.770;9.212;2022-07-05T15:40:05;4.13;;;1.90;;
286;SDS011;127;48.770;9.212;2022-07-05T15:42:35;6.43;;;2.00;;
286;SDS011;127;48.770;9.212;2022-07-05T15:45:04;5.87;;;1.80;;
286;SDS011;127;48.770;9.212;2022-07-05T15:47:33;10.13;;;1.80;;
286;SDS011;127;48.770;9.212;2022-07-05T15:50:07;2.60;;;1.87;;
286;SDS011;127;48.770;9.212;2022-07-05T15:52:37;3.83;;;1.67;;
286;SDS011;127;48.770;9.212;2022-07-05T15:55:08;5.50;;;1.50;;
286;SDS011;127;48.770;9.212;2022-07-05T15:57:38;2.17;;;1.70;;
286;SDS011;127;48.770;9.212;2022-07-05T16:00:07;2.40;;;1.90;;
286;SDS011;127;48.770;9.212;2022-07-05T16:02:36;6.70;;;1.80;;
286;SDS011;127;48.770;9.212;2022-07-05T16:05:08;3.13;;;1.70;;
286;SDS011;127;48.770;9.212;2022-07-05T16:07:36;2.90;;;2.07;;
286;SDS011;127;48.770;9.212;2022-07-05T16:10:05;7.63;;;1.70;;
286;SDS011;127;48.770;9.212;2022-07-05T16:12:35;2.77;;;1.67;;
286;SDS011;127;48.770;9.212;2022-07-05T16:15:04;4.00;;;1.63;;
286;SDS011;127;48.770;9.212;2022-07-05T16:17:34;1.83;;;1.80;;